Time;durP1;ratioP1;P1;durP2;ratioP2;P2;SDS_P1;SDS_P2;PMS_P1;PMS_P2;Temp;Humidity;BMP_temperature;BMP_pressure;BME280_temperature;BME280_humidity;BME280_pressure;Samples;Min_cycle;Max_cycle;Signal;HPM_P1;HPM_P2
2022/07/29 00:01:40;;;;;;;6.73;2.17;;;17.70;99.90;;;;;;5050056;28;20663;-51
2022/07/29 00:04:08;;;;;;;2.00;1.80;;;17.60;99.90;;;;;;5048543;28;20498;-46
2022/07/29 00:06:35;;;;;;;2.43;2.13;;;17.60;99.90;;;;;;5050333;28;20465;-47
2022/07/29 00:09:02;;;;;;;2.43;2.23;;;17.60;99.90;;;;;;5048940;28;20412;-49
2022/07/29 00:11:30;;;;;;;3.50;1.97;;;17.50;99.90;;;;;;5049415;28;20645;-50
2022/07/29 00:13:57;;;;;;;2.07;1.93;;;17.50;99.90;;;;;;5049571;28;20583;-49
2022/07/29 00:16:25;;;;;;;3.83;2.53;;;17.50;99.90;;;;;;5055844;28;20454;-48
2022/07/29 00:18:52;;;;;;;4.90;2.17;;;17.50;99.90;;;;;;5067608;28;20429;-45
2022/07/29 00:21:19;;;;;;;2.10;1.77;;;17.60;99.90;;;;;;5050474;28;20418;-48
2022/07/29 00:23:47;;;;;;;4.37;2.13;;;17.50;99.90;;;;;;5049149;28;20463;-51
2022/07/29 00:26:14;;;;;;;2.80;2.30;;;17.50;99.90;;;;;;5048336;28;20475;-46
2022/07/29 00:28:41;;;;;;;4.40;2.40;;;17.50;99.90;;;;;;5049100;28;20453;-48
2022/07/29 00:31:08;;;;;;;4.47;2.10;;;17.40;99.90;;;;;;5048814;28;20448;-46
2022/07/29 00:33:36;;;;;;;2.07;1.87;;;17.40;99.90;;;;;;5047733;28;20433;-48
2022/07/29 00:36:03;;;;;;;2.60;2.40;;;17.30;99.90;;;;;;5048519;28;20473;-46
2022/07/29 00:38:31;;;;;;;2.77;2.20;;;17.30;99.90;;;;;;5049569;28;20406;-47
2022/07/29 00:40:58;;;;;;;5.07;2.43;;;17.30;99.90;;;;;;5048964;28;20745;-47
2022/07/29 00:43:25;;;;;;;2.60;2.00;;;17.20;99.90;;;;;;5048933;28;20471;-48
2022/07/29 00:45:52;;;;;;;2.10;1.90;;;17.30;99.90;;;;;;5052034;28;20612;-48
2022/07/29 00:48:19;;;;;;;9.73;2.20;;;17.20;99.90;;;;;;5045223;28;20426;-48
2022/07/29 00:50:48;;;;;;;4.23;2.20;;;17.10;99.90;;;;;;5047843;28;20407;-48
2022/07/29 00:53:16;;;;;;;2.33;2.13;;;17.00;99.90;;;;;;5044543;28;20444;-51
2022/07/29 00:55:44;;;;;;;2.60;2.23;;;17.00;99.90;;;;;;5050522;28;20516;-51
2022/07/29 00:58:13;;;;;;;2.77;2.40;;;17.00;99.90;;;;;;5045094;28;20538;-48
2022/07/29 01:00:42;;;;;;;2.43;1.97;;;17.00;99.90;;;;;;5051106;28;20415;-46
2022/07/29 01:03:11;;;;;;;3.50;2.40;;;16.90;99.90;;;;;;5051215;28;20502;-50
2022/07/29 01:05:40;;;;;;;2.80;2.10;;;16.80;99.90;;;;;;5044659;28;20782;-48
2022/07/29 01:08:18;;;;;;;3.40;2.33;;;16.80;99.90;;;;;;5053829;28;20448;-49
2022/07/29 01:10:46;;;;;;;2.00;1.90;;;16.60;99.90;;;;;;5044092;28;20449;-46
2022/07/29 01:13:16;;;;;;;2.50;2.30;;;16.70;99.90;;;;;;5050870;28;20459;-49
2022/07/29 01:15:58;;;;;;;2.20;2.00;;;16.60;99.90;;;;;;5042961;28;20861;-49
2022/07/29 01:18:37;;;;;;;4.67;2.90;;;16.60;99.90;;;;;;5050112;28;20442;-48
2022/07/29 01:21:05;;;;;;;2.47;2.00;;;16.60;99.90;;;;;;5047980;28;20445;-50
2022/07/29 01:23:53;;;;;;;3.00;2.10;;;16.50;99.90;;;;;;5049391;28;20492;-49
2022/07/29 01:26:42;;;;;;;3.33;2.33;;;16.60;99.90;;;;;;5048359;28;20781;-46
2022/07/29 01:29:16;;;;;;;2.93;2.73;;;16.40;99.90;;;;;;5048049;28;20673;-46
2022/07/29 01:31:58;;;;;;;4.00;1.70;;;16.40;99.90;;;;;;5047445;28;20413;-49
2022/07/29 01:34:45;;;;;;;3.23;2.20;;;16.30;99.90;;;;;;5047849;28;20758;-45
2022/07/29 01:37:20;;;;;;;3.67;2.33;;;16.30;99.90;;;;;;5054172;28;20419;-49
2022/07/29 01:39:51;;;;;;;3.87;1.90;;;16.30;99.90;;;;;;5044995;28;20402;-48
2022/07/29 01:42:27;;;;;;;3.23;2.50;;;16.30;99.90;;;;;;5053421;28;20495;-50
2022/07/29 01:44:56;;;;;;;4.63;2.60;;;16.40;99.90;;;;;;5046969;28;20508;-49
2022/07/29 01:47:31;;;;;;;2.00;1.80;;;16.30;99.90;;;;;;5051124;28;20449;-48
2022/07/29 01:50:05;;;;;;;5.33;2.80;;;16.30;99.90;;;;;;5047351;28;20616;-47
2022/07/29 01:52:58;;;;;;;2.27;1.70;;;16.20;99.90;;;;;;5048439;28;20422;-46
2022/07/29 01:55:30;;;;;;;3.63;2.77;;;16.10;99.90;;;;;;5038838;28;20575;-46
2022/07/29 01:57:59;;;;;;;2.63;2.37;;;16.10;99.90;;;;;;5045494;28;20664;-46
2022/07/29 02:00:29;;;;;;;3.27;2.30;;;16.10;99.90;;;;;;5047705;28;21017;-46
2022/07/29 02:03:02;;;;;;;2.60;2.40;;;16.00;99.90;;;;;;5050564;28;20546;-46
2022/07/29 02:05:30;;;;;;;3.30;2.63;;;16.00;99.90;;;;;;5044179;28;20439;-47
2022/07/29 02:07:59;;;;;;;5.23;2.80;;;16.00;99.90;;;;;;5051304;28;20455;-47
2022/07/29 02:10:30;;;;;;;3.00;2.63;;;15.90;99.90;;;;;;5047619;28;20416;-51
2022/07/29 02:12:59;;;;;;;2.57;2.03;;;16.00;99.90;;;;;;5054969;28;20411;-45
2022/07/29 02:15:30;;;;;;;2.97;2.67;;;16.10;99.90;;;;;;5046302;28;20684;-49
2022/07/29 02:18:06;;;;;;;2.80;2.43;;;16.00;99.90;;;;;;5054083;28;20451;-47
2022/07/29 02:20:34;;;;;;;4.67;2.37;;;15.70;99.90;;;;;;5052856;28;20435;-50
2022/07/29 02:23:02;;;;;;;2.77;2.53;;;15.70;99.90;;;;;;5050110;28;20424;-46
2022/07/29 02:25:30;;;;;;;4.40;2.67;;;15.80;99.90;;;;;;5053417;28;20446;-47
2022/07/29 02:28:05;;;;;;;7.53;2.30;;;15.80;99.90;;;;;;5049774;28;20833;-48
2022/07/29 02:30:36;;;;;;;3.03;2.50;;;15.70;99.90;;;;;;5052845;28;20693;-48
2022/07/29 02:33:05;;;;;;;2.80;2.60;;;15.60;99.90;;;;;;5047893;28;20399;-46
2022/07/29 02:35:33;;;;;;;3.93;2.27;;;15.50;99.90;;;;;;5052312;28;20475;-48
2022/07/29 02:40:50;;;;;;;3.90;2.70;;;15.50;99.90;;;;;;5050663;28;20446;-48
2022/07/29 02:43:19;;;;;;;2.60;2.00;;;15.50;99.90;;;;;;5050969;28;20447;-49
2022/07/29 02:45:50;;;;;;;3.40;2.50;;;15.50;99.90;;;;;;5053521;28;20459;-49
2022/07/29 02:48:23;;;;;;;4.63;2.67;;;15.40;99.90;;;;;;5048292;28;20475;-48
2022/07/29 02:51:01;;;;;;;7.00;3.53;;;15.40;99.90;;;;;;5050353;28;20466;-51
2022/07/29 02:53:33;;;;;;;3.80;2.37;;;15.30;99.90;;;;;;5046990;28;20703;-52
2022/07/29 02:56:06;;;;;;;2.20;1.97;;;15.30;99.90;;;;;;5053467;28;20478;-47
2022/07/29 02:58:42;;;;;;;3.67;2.30;;;15.30;99.90;;;;;;5046588;28;20742;-47
2022/07/29 03:01:22;;;;;;;2.60;2.30;;;15.20;99.90;;;;;;5052298;28;20622;-46
2022/07/29 03:03:53;;;;;;;2.23;2.00;;;15.20;99.90;;;;;;5046768;28;20532;-53
2022/07/29 03:06:22;;;;;;;2.43;2.23;;;15.10;99.90;;;;;;5052864;28;20848;-45
2022/07/29 03:09:06;;;;;;;4.03;2.40;;;15.20;99.90;;;;;;5048223;28;20431;-48
2022/07/29 03:11:40;;;;;;;3.03;2.60;;;15.20;99.90;;;;;;5052119;28;20505;-46
2022/07/29 03:14:20;;;;;;;2.53;2.30;;;15.10;99.90;;;;;;5055605;28;20439;-51
2022/07/29 03:16:48;;;;;;;2.80;2.40;;;15.00;99.90;;;;;;5050227;28;20500;-47
2022/07/29 03:19:17;;;;;;;5.73;3.00;;;15.10;99.90;;;;;;5049977;28;20784;-46
2022/07/29 03:21:44;;;;;;;3.40;3.10;;;15.00;99.90;;;;;;5053620;28;20804;-46
2022/07/29 03:24:34;;;;;;;2.50;2.30;;;15.10;99.90;;;;;;5053728;28;20432;-48
2022/07/29 03:27:04;;;;;;;4.50;2.97;;;15.10;99.90;;;;;;5049712;28;20467;-49
2022/07/29 03:29:31;;;;;;;7.00;3.27;;;15.10;99.90;;;;;;5051732;28;20797;-48
2022/07/29 03:32:02;;;;;;;5.40;2.67;;;15.10;99.90;;;;;;5050512;28;20420;-48
2022/07/29 03:34:33;;;;;;;4.27;2.53;;;15.00;99.90;;;;;;5051674;28;20503;-46
2022/07/29 03:37:00;;;;;;;3.27;2.37;;;15.10;99.90;;;;;;5049941;28;20550;-49
2022/07/29 03:39:32;;;;;;;2.80;2.50;;;15.10;99.90;;;;;;5051538;28;20443;-48
2022/07/29 03:42:01;;;;;;;3.67;2.70;;;15.20;99.90;;;;;;5053557;28;20440;-48
2022/07/29 03:44:30;;;;;;;6.60;2.20;;;15.10;99.90;;;;;;5047984;28;20511;-51
2022/07/29 03:47:01;;;;;;;3.90;2.80;;;15.30;99.90;;;;;;5051942;28;20470;-47
2022/07/29 03:49:30;;;;;;;4.70;3.17;;;15.40;99.90;;;;;;5046202;28;20432;-49
2022/07/29 03:51:58;;;;;;;3.10;2.90;;;15.50;99.90;;;;;;5052321;28;20608;-48
2022/07/29 03:54:26;;;;;;;5.10;3.07;;;15.60;99.90;;;;;;5045287;28;20441;-49
2022/07/29 03:56:55;;;;;;;3.27;2.30;;;15.60;99.90;;;;;;5053183;28;20486;-51
2022/07/29 03:59:22;;;;;;;3.23;2.20;;;15.50;99.90;;;;;;5052163;28;20637;-46
2022/07/29 04:01:51;;;;;;;2.90;1.97;;;15.60;99.90;;;;;;5047161;28;20420;-46
2022/07/29 04:04:18;;;;;;;2.70;2.40;;;15.60;99.90;;;;;;5048988;28;20450;-46
2022/07/29 04:06:46;;;;;;;4.70;2.77;;;15.70;99.90;;;;;;5054714;28;20462;-52
2022/07/29 04:09:14;;;;;;;3.17;2.37;;;15.80;99.90;;;;;;5065494;28;20416;-51
2022/07/29 04:11:42;;;;;;;4.80;3.03;;;15.80;99.90;;;;;;5051908;28;20527;-48
2022/07/29 04:14:32;;;;;;;3.40;2.70;;;15.80;99.90;;;;;;5053447;28;20488;-46
2022/07/29 04:17:00;;;;;;;3.33;2.87;;;16.00;99.90;;;;;;5053576;28;20472;-45
2022/07/29 04:19:28;;;;;;;3.53;3.23;;;15.90;99.90;;;;;;5066420;28;20425;-48
2022/07/29 04:21:55;;;;;;;5.70;2.47;;;15.90;99.90;;;;;;5064986;28;20451;-48
2022/07/29 04:24:22;;;;;;;4.43;2.90;;;16.00;99.90;;;;;;5061169;28;20435;-49
2022/07/29 04:26:50;;;;;;;4.97;3.00;;;16.10;99.90;;;;;;5059720;28;20520;-47
2022/07/29 04:29:17;;;;;;;3.50;2.63;;;16.40;99.90;;;;;;5049816;28;20520;-50
2022/07/29 04:31:45;;;;;;;3.00;2.30;;;16.40;99.90;;;;;;5047642;28;20476;-49
2022/07/29 04:34:12;;;;;;;4.00;2.67;;;16.60;99.90;;;;;;5034998;28;20567;-51
2022/07/29 04:36:40;;;;;;;3.67;2.63;;;16.80;99.90;;;;;;5048445;28;20480;-50
2022/07/29 04:39:07;;;;;;;2.63;2.20;;;17.00;99.90;;;;;;5047974;28;20768;-48
2022/07/29 04:41:34;;;;;;;3.90;2.50;;;17.20;99.90;;;;;;5048044;28;20407;-50
2022/07/29 04:44:04;;;;;;;5.23;3.07;;;17.40;99.90;;;;;;5048339;28;20436;-47
2022/07/29 04:46:33;;;;;;;3.20;2.50;;;17.40;99.90;;;;;;5037558;28;20456;-48
2022/07/29 04:49:00;;;;;;;2.93;2.63;;;17.50;99.90;;;;;;5048431;28;20405;-47
2022/07/29 04:51:28;;;;;;;2.50;2.40;;;17.80;99.90;;;;;;5053633;28;20468;-50
2022/07/29 04:53:55;;;;;;;2.83;2.07;;;18.00;99.90;;;;;;5048102;28;20433;-52
2022/07/29 04:56:22;;;;;;;2.20;2.00;;;18.20;99.90;;;;;;5047774;28;20669;-53
2022/07/29 04:58:49;;;;;;;3.73;2.63;;;18.50;99.90;;;;;;5047922;28;20400;-50
2022/07/29 05:01:16;;;;;;;4.57;2.70;;;18.60;99.90;;;;;;5047330;28;20437;-50
2022/07/29 05:03:45;;;;;;;3.10;2.80;;;18.70;99.90;;;;;;5049702;28;20735;-52
2022/07/29 05:06:12;;;;;;;4.30;2.70;;;18.70;99.90;;;;;;5047256;28;20449;-49
2022/07/29 05:08:43;;;;;;;2.57;2.37;;;18.70;99.90;;;;;;5050254;28;20441;-48
2022/07/29 05:11:11;;;;;;;3.57;2.63;;;18.60;99.90;;;;;;5047501;28;20472;-48
2022/07/29 05:13:43;;;;;;;6.53;2.77;;;18.70;99.90;;;;;;5054838;28;20511;-47
2022/07/29 05:16:13;;;;;;;2.97;2.77;;;18.90;99.90;;;;;;5051953;28;20592;-47
2022/07/29 05:18:41;;;;;;;3.70;3.00;;;19.10;99.90;;;;;;5043646;28;20430;-50
2022/07/29 05:21:09;;;;;;;3.00;2.70;;;19.10;99.90;;;;;;5050279;28;20433;-52
2022/07/29 05:23:36;;;;;;;5.57;2.80;;;19.10;99.90;;;;;;5042778;28;20475;-48
2022/07/29 05:26:03;;;;;;;4.37;2.80;;;19.10;99.90;;;;;;5050252;28;20743;-47
2022/07/29 05:28:37;;;;;;;10.70;4.17;;;19.10;99.90;;;;;;5049291;28;20443;-46
2022/07/29 05:31:04;;;;;;;3.23;2.93;;;19.00;99.90;;;;;;5047127;28;20948;-50
2022/07/29 05:33:32;;;;;;;5.87;3.40;;;18.90;99.90;;;;;;5048746;28;20416;-47
2022/07/29 05:36:05;;;;;;;3.10;2.27;;;19.00;99.90;;;;;;5045672;28;20523;-50
2022/07/29 05:38:36;;;;;;;3.63;3.00;;;18.90;99.90;;;;;;5048634;28;20507;-48
2022/07/29 05:41:04;;;;;;;3.70;2.40;;;19.00;99.90;;;;;;5044694;28;20401;-46
2022/07/29 05:43:32;;;;;;;6.30;2.43;;;18.80;99.90;;;;;;5047705;28;20411;-47
2022/07/29 05:45:59;;;;;;;4.50;2.90;;;18.90;99.90;;;;;;5047314;28;20552;-45
2022/07/29 05:48:27;;;;;;;3.90;2.67;;;19.00;99.90;;;;;;5048945;28;20415;-48
2022/07/29 05:50:54;;;;;;;2.83;2.63;;;19.00;99.90;;;;;;5046724;28;20508;-51
2022/07/29 05:53:21;;;;;;;4.40;2.50;;;18.90;99.90;;;;;;5047939;28;20416;-49
2022/07/29 05:55:49;;;;;;;12.63;3.60;;;19.00;99.90;;;;;;5046912;28;20461;-49
2022/07/29 05:58:17;;;;;;;3.50;2.40;;;19.00;99.90;;;;;;5046573;28;20487;-49
2022/07/29 06:00:44;;;;;;;3.57;2.43;;;19.20;99.90;;;;;;5047567;28;20443;-51
2022/07/29 06:03:12;;;;;;;4.20;2.50;;;19.50;99.90;;;;;;5047558;28;20474;-47
2022/07/29 06:05:39;;;;;;;3.87;2.77;;;19.50;99.90;;;;;;5047743;28;20407;-46
2022/07/29 06:08:07;;;;;;;4.10;2.30;;;19.30;99.90;;;;;;5049719;28;20754;-46
2022/07/29 06:10:35;;;;;;;4.17;2.53;;;19.40;99.90;;;;;;5047692;28;20434;-46
2022/07/29 06:13:03;;;;;;;2.30;2.10;;;19.50;99.90;;;;;;5046800;28;20435;-48
2022/07/29 06:15:30;;;;;;;2.60;2.33;;;19.70;99.90;;;;;;5047407;28;20437;-47
2022/07/29 06:17:58;;;;;;;8.90;4.43;;;20.10;99.90;;;;;;5046998;28;20485;-44
2022/07/29 06:20:31;;;;;;;7.93;2.53;;;20.10;99.90;;;;;;5047315;28;20432;-46
2022/07/29 06:22:59;;;;;;;5.43;3.10;;;20.10;99.90;;;;;;5045693;28;20409;-47
2022/07/29 06:25:30;;;;;;;4.60;2.10;;;20.20;99.90;;;;;;5047759;28;20404;-50
2022/07/29 06:27:58;;;;;;;2.77;2.50;;;20.40;99.90;;;;;;5049949;28;20630;-46
2022/07/29 06:30:25;;;;;;;2.93;2.53;;;20.60;99.90;;;;;;5043981;28;20405;-50
2022/07/29 06:32:53;;;;;;;3.43;2.63;;;21.10;99.90;;;;;;5050395;28;20449;-48
2022/07/29 06:35:21;;;;;;;3.27;2.97;;;21.80;99.90;;;;;;5043436;28;20485;-47
2022/07/29 06:38:08;;;;;;;3.43;2.40;;;22.00;99.90;;;;;;5048388;28;20479;-51
2022/07/29 06:43:35;;;;;;;3.67;3.20;;;21.90;99.90;;;;;;5051845;28;20637;-49
2022/07/29 06:46:21;;;;;;;6.63;3.30;;;21.90;99.90;;;;;;5047925;28;20457;-48
2022/07/29 06:48:51;;;;;;;7.10;4.00;;;22.00;99.90;;;;;;5046683;28;20421;-48
2022/07/29 06:51:19;;;;;;;3.00;2.70;;;22.20;99.90;;;;;;5047225;28;20419;-50
2022/07/29 06:53:51;;;;;;;2.57;2.37;;;23.00;99.90;;;;;;5043437;28;20435;-46
2022/07/29 06:56:32;;;;;;;3.10;2.90;;;23.40;99.90;;;;;;5050416;28;20786;-50
2022/07/29 06:59:06;;;;;;;7.23;3.43;;;24.10;99.90;;;;;;5050152;28;20408;-49
2022/07/29 07:01:35;;;;;;;3.37;3.00;;;24.50;99.90;;;;;;5051730;28;20795;-49
2022/07/29 07:04:02;;;;;;;4.23;3.40;;;24.50;99.90;;;;;;5049950;28;20437;-50
2022/07/29 07:06:30;;;;;;;4.83;2.90;;;24.10;99.90;;;;;;5051091;28;20449;-49
2022/07/29 07:08:57;;;;;;;2.70;2.20;;;23.60;99.90;;;;;;5055609;28;20517;-52
2022/07/29 07:11:25;;;;;;;3.53;2.23;;;23.60;99.90;;;;;;5052999;28;20658;-53
2022/07/29 07:13:52;;;;;;;2.10;1.80;;;23.50;99.90;;;;;;5047289;28;20698;-50
2022/07/29 07:16:19;;;;;;;2.33;2.13;;;23.70;99.90;;;;;;5056405;28;20866;-51
2022/07/29 07:18:46;;;;;;;2.20;2.00;;;24.00;99.90;;;;;;5047034;28;20443;-53
2022/07/29 07:21:13;;;;;;;2.20;2.00;;;24.70;99.90;;;;;;5053421;28;20666;-53
2022/07/29 07:23:45;;;;;;;11.57;2.53;;;25.80;99.90;;;;;;5045237;28;20429;-45
2022/07/29 07:26:14;;;;;;;2.20;2.00;;;26.90;99.90;;;;;;5052978;28;20409;-49
2022/07/29 07:28:41;;;;;;;3.23;2.33;;;26.60;99.90;;;;;;5055516;28;20451;-47
2022/07/29 07:31:09;;;;;;;3.10;1.90;;;26.40;99.90;;;;;;5076035;28;20438;-47
2022/07/29 07:33:36;;;;;;;3.73;2.20;;;26.60;99.90;;;;;;5067023;28;20746;-51
2022/07/29 07:36:04;;;;;;;2.83;2.17;;;26.50;99.90;;;;;;5047881;28;20433;-52
2022/07/29 07:38:31;;;;;;;4.57;2.60;;;26.10;99.90;;;;;;5050843;28;20445;-48
2022/07/29 07:40:58;;;;;;;3.80;3.03;;;26.10;99.90;;;;;;5056975;28;20958;-46
2022/07/29 07:43:25;;;;;;;7.37;2.60;;;25.70;99.90;;;;;;5063392;28;20729;-50
2022/07/29 07:45:52;;;;;;;1.97;1.87;;;25.30;99.90;;;;;;5036168;28;20416;-51
2022/07/29 07:48:20;;;;;;;3.13;2.00;;;25.00;99.90;;;;;;5051572;28;20723;-51
2022/07/29 07:50:49;;;;;;;2.17;1.97;;;24.80;99.90;;;;;;5050333;28;20413;-53
2022/07/29 07:53:16;;;;;;;4.73;2.23;;;24.90;99.90;;;;;;5053536;28;20420;-51
2022/07/29 07:55:43;;;;;;;2.17;2.03;;;24.80;99.90;;;;;;5030908;28;20786;-48
2022/07/29 07:58:30;;;;;;;3.10;2.10;;;25.00;99.90;;;;;;5054766;28;20478;-50
2022/07/29 08:00:58;;;;;;;1.87;1.77;;;24.80;99.90;;;;;;5042453;28;20727;-47
2022/07/29 08:03:25;;;;;;;2.30;2.10;;;24.50;99.90;;;;;;5041871;28;20444;-50
2022/07/29 08:05:54;;;;;;;3.30;2.30;;;24.40;99.90;;;;;;5042289;28;20504;-50
2022/07/29 08:08:21;;;;;;;7.07;2.67;;;24.80;99.90;;;;;;5044517;28;20434;-49
2022/07/29 08:10:51;;;;;;;3.50;2.53;;;25.00;99.90;;;;;;5043351;28;20456;-50
2022/07/29 08:13:20;;;;;;;4.60;1.93;;;25.20;99.90;;;;;;5045667;28;20907;-49
2022/07/29 08:15:57;;;;;;;4.90;2.33;;;25.10;99.90;;;;;;5042359;28;20461;-49
2022/07/29 08:18:29;;;;;;;2.00;1.80;;;25.40;99.90;;;;;;5042996;28;20538;-47
2022/07/29 08:20:57;;;;;;;3.73;2.47;;;26.30;99.90;;;;;;5043035;28;20437;-48
2022/07/29 08:23:26;;;;;;;2.50;2.30;;;26.40;99.90;;;;;;5048703;28;20441;-51
2022/07/29 08:26:13;;;;;;;4.00;2.50;;;26.40;99.90;;;;;;5052117;28;20488;-51
2022/07/29 08:28:48;;;;;;;2.30;2.00;;;26.70;99.90;;;;;;5056951;28;20494;-53
2022/07/29 08:31:16;;;;;;;3.13;1.93;;;26.90;99.90;;;;;;5043720;28;20862;-48
2022/07/29 08:33:43;;;;;;;4.17;2.20;;;27.40;99.80;;;;;;5042162;28;20466;-49
2022/07/29 08:36:12;;;;;;;2.33;1.70;;;27.90;98.60;;;;;;5056798;28;20444;-50
2022/07/29 08:38:39;;;;;;;2.93;2.73;;;27.40;99.00;;;;;;5049570;28;20539;-53
2022/07/29 08:41:07;;;;;;;5.70;2.60;;;27.50;98.70;;;;;;5048870;28;20773;-52
2022/07/29 08:43:37;;;;;;;3.47;2.20;;;26.90;99.70;;;;;;5061935;28;20443;-52
2022/07/29 08:46:04;;;;;;;3.13;1.97;;;27.40;99.00;;;;;;5045511;28;20502;-50
2022/07/29 08:48:33;;;;;;;1.73;1.53;;;27.40;98.50;;;;;;5062540;28;20444;-50
2022/07/29 08:51:01;;;;;;;3.00;2.30;;;27.40;98.50;;;;;;5045185;28;20747;-49
2022/07/29 08:53:31;;;;;;;6.80;2.27;;;27.70;98.50;;;;;;5066784;28;20780;-51
2022/07/29 08:55:59;;;;;;;2.73;2.30;;;28.10;97.80;;;;;;5052298;28;20447;-52
2022/07/29 08:58:31;;;;;;;2.47;2.27;;;28.10;97.30;;;;;;5048471;28;20487;-51
2022/07/29 09:01:03;;;;;;;5.13;2.30;;;27.70;97.80;;;;;;5043257;28;20440;-48
2022/07/29 09:03:36;;;;;;;4.57;2.70;;;27.10;98.50;;;;;;5046197;28;20408;-49
2022/07/29 09:06:04;;;;;;;2.30;2.10;;;27.30;98.90;;;;;;5051149;28;20417;-48
2022/07/29 09:08:33;;;;;;;2.30;1.83;;;27.50;98.50;;;;;;5049250;28;20532;-46
2022/07/29 09:11:03;;;;;;;3.07;2.20;;;29.10;96.10;;;;;;5049955;28;20475;-50
2022/07/29 09:13:31;;;;;;;2.70;2.50;;;30.80;93.80;;;;;;5045245;28;20774;-53
2022/07/29 09:15:58;;;;;;;3.23;2.57;;;30.30;93.10;;;;;;5050736;28;20744;-49
2022/07/29 09:18:43;;;;;;;3.70;1.90;;;30.30;92.20;;;;;;5052668;28;20481;-50
2022/07/29 09:24:13;;;;;;;3.53;2.23;;;29.80;91.90;;;;;;5039559;28;20560;-47
2022/07/29 09:26:44;;;;;;;2.23;2.13;;;29.40;92.80;;;;;;5041631;28;20464;-50
2022/07/29 09:29:22;;;;;;;3.40;2.40;;;28.40;93.80;;;;;;5039088;28;20591;-47
2022/07/29 09:31:52;;;;;;;2.50;2.30;;;27.50;95.60;;;;;;5039944;28;20415;-48
2022/07/29 09:34:25;;;;;;;2.40;2.03;;;27.20;96.40;;;;;;5040106;28;20552;-51
2022/07/29 09:36:54;;;;;;;2.90;2.10;;;27.20;96.60;;;;;;5050233;28;20465;-49
2022/07/29 09:39:43;;;;;;;4.13;2.53;;;26.80;97.00;;;;;;5041526;28;20422;-49
2022/07/29 09:42:12;;;;;;;3.00;2.07;;;26.90;97.50;;;;;;5048916;28;20605;-45
2022/07/29 09:44:50;;;;;;;3.37;2.17;;;26.80;97.80;;;;;;5046097;28;20442;-49
2022/07/29 09:47:21;;;;;;;5.07;2.63;;;27.00;97.80;;;;;;5050494;28;20796;-49
2022/07/29 09:49:54;;;;;;;2.50;2.30;;;27.50;97.30;;;;;;5047532;28;20526;-47
2022/07/29 09:52:22;;;;;;;2.90;2.17;;;27.20;97.50;;;;;;5048549;28;20416;-50
